Time;durP1;ratioP1;P1;durP2;ratioP2;P2;SDS_P1;SDS_P2;PMS_P1;PMS_P2;Temp;Humidity;BMP_temperature;BMP_pressure;BME280_temperature;BME280_humidity;BME280_pressure;Samples;Min_cycle;Max_cycle;Signal;HPM_P1;HPM_P2
2023/03/18 00:00:14;;;;;;;4.07;1.60;;;;;;;6.40;42.58;101453.66;4911198;29;19918;-87
2023/03/18 00:02:40;;;;;;;5.82;1.90;;;;;;;6.55;42.60;101470.38;4915736;29;20485;-88
2023/03/18 00:05:08;;;;;;;6.95;2.53;;;;;;;6.33;42.78;101431.06;4915074;29;20185;-89
2023/03/18 00:07:35;;;;;;;4.80;1.85;;;;;;;6.14;42.98;101420.91;4904457;29;20114;-94
2023/03/18 00:10:05;;;;;;;3.80;1.77;;;;;;;5.98;43.30;101426.50;4932559;29;20491;-91
2023/03/18 00:12:32;;;;;;;3.75;1.65;;;;;;;6.09;43.04;101442.59;4912730;29;20039;-93
2023/03/18 00:14:58;;;;;;;4.32;1.85;;;;;;;6.09;43.23;101455.94;4920299;29;20027;-93
2023/03/18 00:17:28;;;;;;;5.15;2.00;;;;;;;5.98;43.62;101447.00;4949063;29;20040;-91
2023/03/18 00:19:54;;;;;;;4.40;1.90;;;;;;;5.91;43.81;101444.75;4932591;29;20047;-89
2023/03/18 00:22:21;;;;;;;;;;;;;;;5.97;44.20;101464.84;4920161;29;20127;-90
2023/03/18 00:24:47;;;;;;;4.32;1.65;;;;;;;5.88;44.41;101470.81;4935653;29;19921;-88
2023/03/18 00:27:14;;;;;;;3.97;1.83;;;;;;;5.67;44.77;101443.88;4941143;29;20437;-91
2023/03/18 00:29:41;;;;;;;4.38;1.60;;;;;;;5.90;44.79;101460.91;4924535;29;20054;-91
2023/03/18 00:32:11;;;;;;;7.60;1.80;;;;;;;5.80;44.53;101463.34;4951367;29;20050;-90
2023/03/18 00:34:39;;;;;;;5.90;1.85;;;;;;;5.39;44.90;101424.50;4946123;29;20047;-90
2023/03/18 00:37:07;;;;;;;3.28;1.70;;;;;;;5.71;45.06;101448.88;4934647;29;20145;-91
2023/03/18 00:39:34;;;;;;;6.55;2.22;;;;;;;5.54;44.79;101413.69;4931627;29;20219;-90
2023/03/18 00:42:09;;;;;;;8.70;2.00;;;;;;;5.49;44.68;101422.03;4917789;29;20059;-91
2023/03/18 00:44:35;;;;;;;4.78;2.20;;;;;;;5.62;45.30;101438.88;4931795;29;20125;-91
2023/03/18 00:47:05;;;;;;;3.75;1.80;;;;;;;5.50;45.19;101429.03;4920127;29;20032;-89
2023/03/18 00:49:32;;;;;;;3.65;1.98;;;;;;;5.45;45.17;101420.53;4953461;29;20107;-89
2023/03/18 00:51:59;;;;;;;11.88;3.40;;;;;;;5.72;45.00;101455.91;4933878;29;20436;-91
2023/03/18 00:54:26;;;;;;;4.70;2.20;;;;;;;5.50;45.66;101423.72;4931969;29;20063;-90
2023/03/18 00:56:52;;;;;;;5.55;2.20;;;;;;;5.52;45.56;101435.13;4951770;29;20031;-91
2023/03/18 00:59:19;;;;;;;6.43;2.40;;;;;;;5.44;45.64;101408.16;4931672;29;20085;-90
2023/03/18 01:01:45;;;;;;;10.70;4.68;;;;;;;5.71;45.77;101454.22;4934367;29;20043;-89
2023/03/18 01:04:12;;;;;;;6.13;2.67;;;;;;;5.46;45.80;101422.25;4948315;29;20035;-88
2023/03/18 01:06:38;;;;;;;7.65;2.85;;;;;;;5.38;46.05;101413.94;4899327;29;20058;-88
2023/03/18 01:09:05;;;;;;;6.43;2.60;;;;;;;5.58;46.32;101448.03;4913385;29;20142;-89
2023/03/18 01:11:30;;;;;;;10.60;3.50;;;;;;;5.44;46.31;101421.50;4937632;29;20047;-88
2023/03/18 01:14:02;;;;;;;6.78;2.58;;;;;;;5.34;46.64;101428.44;4947375;29;20499;-89
2023/03/18 01:16:29;;;;;;;4.75;2.10;;;;;;;5.37;47.34;101430.91;4917760;29;20044;-90
2023/03/18 01:18:57;;;;;;;5.63;2.92;;;;;;;5.35;47.07;101419.47;4929203;29;20050;-88
2023/03/18 01:21:23;;;;;;;6.25;3.10;;;;;;;5.58;46.67;101424.03;4919873;29;20032;-90
2023/03/18 01:23:52;;;;;;;7.95;3.60;;;;;;;5.49;46.88;101414.88;4924928;29;20177;-90
2023/03/18 01:26:22;;;;;;;7.57;3.65;;;;;;;5.43;47.11;101411.78;4936925;29;20145;-88
2023/03/18 01:28:52;;;;;;;8.60;2.80;;;;;;;5.43;47.17;101414.44;4919115;29;20130;-87
2023/03/18 01:31:18;;;;;;;5.55;2.40;;;;;;;5.57;47.25;101442.81;4954528;29;20051;-89
2023/03/18 01:33:45;;;;;;;5.40;2.65;;;;;;;5.36;47.52;101405.19;4932496;29;20074;-90
2023/03/18 01:36:14;;;;;;;6.78;3.05;;;;;;;5.49;47.28;101425.53;4952176;29;20062;-88
2023/03/18 01:38:41;;;;;;;5.28;2.45;;;;;;;5.34;47.46;101407.09;4926101;29;20112;-90
2023/03/18 01:41:07;;;;;;;5.85;3.00;;;;;;;5.41;47.50;101411.06;4917849;29;20039;-89
2023/03/18 01:43:41;;;;;;;7.00;2.70;;;;;;;5.43;47.40;101439.31;4920226;29;20408;-91
2023/03/18 01:46:43;;;;;;;5.82;2.42;;;;;;;5.51;47.87;101438.78;4954599;28;20539;-91
2023/03/18 01:49:23;;;;;;;6.28;2.72;;;;;;;5.49;48.03;101440.69;4933555;29;20043;-91
2023/03/18 01:52:02;;;;;;;6.55;2.80;;;;;;;5.31;48.33;101431.31;4937988;29;20109;-89
2023/03/18 01:54:29;;;;;;;7.07;2.80;;;;;;;5.28;48.48;101451.06;4908125;29;20031;-89
2023/03/18 01:56:54;;;;;;;7.80;3.15;;;;;;;4.94;48.91;101407.22;4921610;29;20047;-91
2023/03/18 01:59:22;;;;;;;4.68;2.65;;;;;;;5.19;49.23;101449.03;4933007;29;20042;-90
2023/03/18 02:02:05;;;;;;;6.43;2.88;;;;;;;5.06;49.26;101436.56;4934799;29;20046;-89
2023/03/18 02:04:36;;;;;;;5.28;2.60;;;;;;;5.12;49.19;101440.59;4915595;29;20487;-90
2023/03/18 02:07:02;;;;;;;5.50;2.67;;;;;;;5.01;49.04;101414.72;4924049;29;20039;-91
2023/03/18 02:09:29;;;;;;;4.63;2.30;;;;;;;5.08;49.12;101428.47;4953810;29;20039;-88
2023/03/18 02:12:01;;;;;;;5.97;2.60;;;;;;;4.97;49.06;101426.53;4957181;29;20055;-91
2023/03/18 02:14:29;;;;;;;5.82;2.67;;;;;;;4.98;49.42;101443.38;4939706;29;20047;-89
2023/03/18 02:17:03;;;;;;;8.30;2.90;;;;;;;5.02;49.57;101448.38;4974387;28;20031;-92
2023/03/18 02:19:51;;;;;;;5.55;2.80;;;;;;;5.11;48.75;101451.38;4918591;29;20051;-87
2023/03/18 02:22:25;;;;;;;6.60;2.90;;;;;;;4.99;49.54;101447.75;4953152;29;20093;-89
2023/03/18 02:25:20;;;;;;;6.32;2.55;;;;;;;4.90;49.43;101433.25;4917921;29;20039;-89
2023/03/18 02:27:48;;;;;;;8.00;2.72;;;;;;;4.59;49.95;101400.72;4947857;29;20054;-89
2023/03/18 02:30:21;;;;;;;6.57;3.00;;;;;;;4.55;49.82;101398.38;4911914;29;20031;-89
2023/03/18 02:32:47;;;;;;;5.50;2.83;;;;;;;4.58;49.75;101409.66;4935995;29;20020;-90
2023/03/18 02:35:13;;;;;;;7.00;2.72;;;;;;;4.56;49.84;101411.56;4934645;29;20066;-90
2023/03/18 02:37:39;;;;;;;4.93;2.60;;;;;;;4.28;50.84;101411.69;4932678;29;20059;-88
2023/03/18 02:40:15;;;;;;;8.15;3.47;;;;;;;4.32;51.09;101410.56;4918596;29;20181;-89
2023/03/18 02:42:43;;;;;;;6.25;2.92;;;;;;;4.23;51.41;101430.63;4919224;29;20023;-89
2023/03/18 02:45:16;;;;;;;7.75;2.85;;;;;;;4.23;52.07;101443.94;4930206;29;20057;-89
2023/03/18 02:47:42;;;;;;;5.63;3.05;;;;;;;3.86;51.97;101405.59;4937888;29;20027;-88
2023/03/18 02:50:08;;;;;;;6.65;3.55;;;;;;;4.14;51.79;101444.56;4922795;29;20035;-88
2023/03/18 02:52:36;;;;;;;6.60;3.33;;;;;;;3.85;51.96;101415.38;4926083;29;20027;-90
2023/03/18 02:55:02;;;;;;;9.30;3.50;;;;;;;3.93;52.37;101429.06;4957858;28;20121;-88
2023/03/18 02:57:28;;;;;;;7.90;3.40;;;;;;;3.81;52.42;101414.69;4950693;29;20437;-89
2023/03/18 02:59:54;;;;;;;7.28;3.20;;;;;;;3.75;52.80;101438.22;4936346;29;20081;-89
2023/03/18 03:02:21;;;;;;;4.95;3.00;;;;;;;3.72;52.42;101422.44;4931408;29;20048;-90
2023/03/18 03:04:48;;;;;;;7.10;3.15;;;;;;;3.71;52.55;101423.38;4920950;29;20110;-89
2023/03/18 03:07:14;;;;;;;8.45;3.60;;;;;;;3.67;52.84;101417.41;4918005;29;20040;-90
2023/03/18 03:09:41;;;;;;;6.63;3.55;;;;;;;3.84;52.88;101456.25;4899395;29;20139;-89
2023/03/18 03:12:08;;;;;;;8.05;3.55;;;;;;;3.73;53.03;101458.72;4919973;29;20385;-90
2023/03/18 03:14:34;;;;;;;8.05;3.22;;;;;;;3.53;53.84;101452.00;4928515;29;20036;-91
2023/03/18 03:17:01;;;;;;;6.22;3.30;;;;;;;3.38;53.56;101435.19;4901588;29;20126;-90
2023/03/18 03:19:28;;;;;;;10.90;3.20;;;;;;;3.43;53.79;101453.53;4933048;29;20055;-89
2023/03/18 03:21:54;;;;;;;6.85;3.00;;;;;;;3.25;54.24;101436.91;4952421;29;20276;-90
2023/03/18 03:24:21;;;;;;;6.15;3.15;;;;;;;3.10;53.97;101418.31;4931279;29;20094;-88
2023/03/18 03:26:49;;;;;;;5.65;3.20;;;;;;;3.14;54.25;101413.66;4907954;29;20036;-88
2023/03/18 03:29:16;;;;;;;5.60;3.22;;;;;;;3.32;54.11;101444.41;4943020;29;20048;-90
2023/03/18 03:31:42;;;;;;;7.68;3.00;;;;;;;2.92;54.58;101409.66;4933576;29;20038;-89
2023/03/18 03:34:11;;;;;;;9.55;3.15;;;;;;;2.98;54.76;101416.41;4946148;28;20062;-87
2023/03/18 03:36:39;;;;;;;6.47;3.10;;;;;;;3.00;54.82;101429.56;4951046;29;20039;-90
2023/03/18 03:39:06;;;;;;;11.02;3.40;;;;;;;3.09;54.52;101427.22;4942229;29;20077;-90
2023/03/18 03:41:33;;;;;;;8.60;3.10;;;;;;;2.93;54.62;101416.69;4938245;29;20038;-88
2023/03/18 03:43:58;;;;;;;8.68;3.10;;;;;;;2.93;54.34;101423.81;4920152;29;20432;-90
2023/03/18 03:46:27;;;;;;;5.75;3.17;;;;;;;2.88;54.83;101437.34;4954172;28;20031;-90
2023/03/18 03:48:53;;;;;;;7.80;3.53;;;;;;;2.68;54.93;101417.28;4943157;29;20093;-86
2023/03/18 03:51:18;;;;;;;8.85;3.05;;;;;;;2.85;54.65;101439.34;4973339;28;20032;-86
2023/03/18 03:53:45;;;;;;;8.40;3.00;;;;;;;2.86;54.65;101435.75;4918126;29;20118;-90
2023/03/18 03:56:11;;;;;;;6.20;2.67;;;;;;;2.65;55.05;101435.22;4951709;29;20031;-89
2023/03/18 03:58:36;;;;;;;10.10;3.17;;;;;;;2.92;54.78;101460.09;4935707;29;20031;-89
2023/03/18 04:01:05;;;;;;;;;;;;;;;2.93;54.90;101461.00;4939724;29;20043;-89
2023/03/18 04:03:31;;;;;;;5.88;2.90;;;;;;;2.75;55.09;101450.50;4925029;29;19923;-89
2023/03/18 04:05:56;;;;;;;6.75;3.13;;;;;;;2.69;54.95;101434.06;4927229;28;20102;-89
2023/03/18 04:08:26;;;;;;;8.02;3.50;;;;;;;2.80;54.87;101441.41;4915161;29;20063;-89
2023/03/18 04:10:53;;;;;;;9.68;3.42;;;;;;;2.47;55.37;101410.63;4926600;29;20475;-89
2023/03/18 04:13:20;;;;;;;8.30;3.05;;;;;;;2.65;55.03;101427.25;4916819;29;20062;-90
2023/03/18 04:15:46;;;;;;;8.07;3.47;;;;;;;2.51;55.43;101420.97;4912761;29;20047;-89
2023/03/18 04:18:13;;;;;;;;;;;;;;;2.68;55.66;101458.94;4901210;29;20472;-89
2023/03/18 04:20:43;;;;;;;7.68;3.00;;;;;;;2.56;55.61;101443.72;4914231;29;20005;-90
2023/03/18 04:23:10;;;;;;;6.78;3.17;;;;;;;2.38;55.92;101435.03;4886143;29;20051;-90
2023/03/18 04:25:42;;;;;;;7.68;3.20;;;;;;;2.28;55.56;101405.53;4897228;29;20034;-90
2023/03/18 04:28:10;;;;;;;7.20;3.70;;;;;;;2.48;56.31;101452.13;4898629;29;20115;-91
2023/03/18 04:30:37;;;;;;;7.95;3.53;;;;;;;2.37;56.53;101466.03;4892881;29;20143;-90
2023/03/18 04:33:03;;;;;;;6.38;3.40;;;;;;;2.27;56.09;101428.56;4883202;29;20033;-91
2023/03/18 04:35:29;;;;;;;9.55;3.60;;;;;;;2.45;55.78;101437.22;4904350;29;20422;-90
2023/03/18 04:37:56;;;;;;;10.40;3.90;;;;;;;2.37;56.16;101452.75;4899043;29;20041;-90
2023/03/18 04:40:22;;;;;;;;;;;;;;;2.52;55.91;101469.59;4921379;29;20047;-88
2023/03/18 04:42:52;;;;;;;8.70;3.65;;;;;;;2.47;55.77;101453.06;4911387;29;20402;-91
2023/03/18 04:45:23;;;;;;;7.40;3.58;;;;;;;2.17;55.92;101406.13;4875477;29;20044;-91
2023/03/18 04:47:53;;;;;;;9.32;3.78;;;;;;;2.30;55.90;101431.03;4910400;29;20127;-92
2023/03/18 04:50:20;;;;;;;9.38;3.45;;;;;;;2.38;55.66;101440.34;4875511;29;20131;-88
2023/03/18 04:52:46;;;;;;;11.30;3.72;;;;;;;2.35;55.94;101433.41;4890340;29;20441;-92
2023/03/18 04:55:19;;;;;;;9.82;3.42;;;;;;;2.56;55.63;101443.72;4905502;29;20024;-92
2023/03/18 04:57:45;;;;;;;7.22;3.95;;;;;;;2.48;55.39;101445.03;4893421;29;20067;-91
2023/03/18 05:00:21;;;;;;;9.38;3.80;;;;;;;2.55;55.57;101448.16;4916330;29;20047;-90
2023/03/18 05:02:47;;;;;;;11.27;3.67;;;;;;;2.66;55.27;101456.34;4892200;29;20497;-91
2023/03/18 05:05:13;;;;;;;9.77;3.70;;;;;;;2.70;54.98;101457.03;4916538;29;20048;-89
2023/03/18 05:07:41;;;;;;;10.05;4.15;;;;;;;2.51;55.61;101446.66;4896562;29;20042;-89
2023/03/18 05:10:09;;;;;;;7.38;3.65;;;;;;;2.70;55.36;101457.03;4901133;29;20409;-91
2023/03/18 05:12:42;;;;;;;10.27;3.80;;;;;;;2.55;55.03;101437.53;4902784;29;20031;-89
2023/03/18 05:15:13;;;;;;;10.23;3.83;;;;;;;2.90;55.07;101480.63;4911919;29;20114;-90
2023/03/18 05:17:41;;;;;;;9.00;3.78;;;;;;;2.84;54.98;101454.41;4930844;29;20047;-90
2023/03/18 05:20:09;;;;;;;10.40;3.70;;;;;;;2.99;54.79;101452.63;4939517;29;20178;-91
2023/03/18 05:22:36;;;;;;;8.60;3.90;;;;;;;2.98;54.15;101444.78;4912275;29;20345;-90
2023/03/18 05:25:02;;;;;;;8.90;3.78;;;;;;;3.13;53.67;101449.13;4920606;29;20066;-91
2023/03/18 05:27:29;;;;;;;7.72;3.75;;;;;;;3.29;54.04;101478.28;4953240;29;20047;-90
2023/03/18 05:29:57;;;;;;;8.38;3.40;;;;;;;3.08;54.17;101445.91;4956588;29;20050;-90
2023/03/18 05:32:24;;;;;;;8.13;3.30;;;;;;;3.21;53.70;101457.50;4937125;29;20024;-91
2023/03/18 05:34:50;;;;;;;10.63;4.00;;;;;;;3.23;53.69;101438.78;4930519;28;20120;-90
2023/03/18 05:37:16;;;;;;;8.73;3.30;;;;;;;3.21;53.31;101454.84;4924981;29;20543;-88
2023/03/18 05:39:44;;;;;;;7.63;3.63;;;;;;;3.31;52.95;101437.38;4920139;29;20043;-89
2023/03/18 05:42:11;;;;;;;7.82;3.83;;;;;;;3.50;52.82;101463.69;4920849;29;20090;-88
2023/03/18 05:44:39;;;;;;;10.23;3.55;;;;;;;3.26;52.96;101475.84;4937147;29;20049;-90
2023/03/18 05:47:05;;;;;;;8.98;4.20;;;;;;;3.30;53.08;101445.44;4955095;29;20510;-91
2023/03/18 05:49:32;;;;;;;;;;;;;;;3.80;52.63;101479.50;4922951;29;20130;-91
2023/03/18 05:52:12;;;;;;;8.30;3.72;;;;;;;3.95;51.90;101485.66;4954766;29;19925;-93
2023/03/18 05:54:40;;;;;;;10.05;3.90;;;;;;;4.12;51.63;101446.47;4956884;29;20130;-89
2023/03/18 05:57:09;;;;;;;10.10;3.88;;;;;;;5.30;48.65;101465.13;4973802;29;20059;-91
2023/03/18 05:59:34;;;;;;;7.45;3.67;;;;;;;6.09;46.28;101442.59;4971814;28;20020;-93
2023/03/18 06:02:00;;;;;;;8.93;4.03;;;;;;;7.35;44.20;101451.75;4969127;28;20015;-91
2023/03/18 06:04:29;;;;;;;10.75;4.50;;;;;;;8.59;40.87;101469.41;4943487;29;20046;-91
2023/03/18 06:06:57;;;;;;;9.82;4.55;;;;;;;9.49;40.04;101463.53;4922976;29;20383;-90
2023/03/18 06:09:22;;;;;;;11.95;4.88;;;;;;;10.28;37.94;101452.03;4964033;29;20054;-87
2023/03/18 06:11:51;;;;;;;11.07;5.15;;;;;;;11.09;36.73;101460.63;4924166;29;20048;-90
2023/03/18 06:14:18;;;;;;;9.48;4.72;;;;;;;11.67;35.08;101465.00;4930867;29;20032;-90
2023/03/18 06:16:44;;;;;;;9.85;4.95;;;;;;;11.11;35.28;101482.03;4945982;29;20476;-90
2023/03/18 06:19:10;;;;;;;10.05;4.38;;;;;;;11.40;35.37;101476.56;4932261;29;20043;-90
2023/03/18 06:21:37;;;;;;;11.75;4.38;;;;;;;11.98;34.51;101494.38;4937246;29;20067;-90
2023/03/18 06:24:06;;;;;;;7.75;3.97;;;;;;;11.99;34.42;101488.00;4929924;29;20038;-89
2023/03/18 06:26:33;;;;;;;7.85;4.32;;;;;;;12.24;34.14;101478.34;4929764;29;20035;-88
2023/03/18 06:28:58;;;;;;;8.25;4.45;;;;;;;12.18;34.31;101449.31;4950951;28;20177;-89
2023/03/18 06:35:01;;;;;;;11.50;6.40;;;;;;;11.94;34.88;101483.06;4958707;29;20050;-93
2023/03/18 06:41:32;;;;;;;6.60;4.13;;;;;;;12.10;34.85;101493.16;4961432;29;20130;-94
2023/03/18 07:16:08;;;;;;;9.20;4.65;;;;;;;14.69;31.31;101468.16;4910012;29;20126;-93
2023/03/18 07:18:50;;;;;;;11.13;4.80;;;;;;;14.31;31.86;101435.28;4934896;23;20044;-95
2023/03/18 07:27:24;;;;;;;11.48;5.47;;;;;;;13.61;33.78;101446.38;797127;23;20309;31
2023/03/18 07:30:24;;;;;;;10.48;5.22;;;;;;;14.14;32.97;101482.22;4910046;29;20190;-94
2023/03/18 07:43:23;;;;;;;7.82;5.18;;;;;;;15.36;30.50;101451.69;4892852;29;20082;-92
2023/03/18 07:46:11;;;;;;;9.27;4.90;;;;;;;14.82;31.51;101473.09;4923127;29;20116;-94
2023/03/18 07:49:11;;;;;;;10.20;5.20;;;;;;;15.26;31.62;101466.44;4923750;29;20107;-96
2023/03/18 07:51:57;;;;;;;11.45;5.85;;;;;;;14.19;32.66;101473.59;4920949;29;20036;-94
2023/03/18 07:54:37;;;;;;;12.75;5.88;;;;;;;13.96;33.79;101449.06;4901432;29;20042;-89
2023/03/18 07:57:05;;;;;;;9.85;5.35;;;;;;;14.28;33.27;101489.72;4903565;29;20163;-93
2023/03/18 07:59:32;;;;;;;11.35;5.82;;;;;;;13.98;33.89;101466.81;4884223;29;20044;-91
2023/03/18 08:01:58;;;;;;;9.07;5.47;;;;;;;13.20;35.41;101456.91;4898999;29;20039;-91
2023/03/18 08:04:23;;;;;;;9.18;5.55;;;;;;;12.98;35.68;101444.78;4911751;29;20039;-92
2023/03/18 08:06:51;;;;;;;13.85;5.88;;;;;;;12.98;36.37;101446.66;4913821;29;20123;-89
2023/03/18 08:09:37;;;;;;;9.68;5.70;;;;;;;12.78;36.49;101457.63;4877068;29;20511;-91
2023/03/18 08:12:04;;;;;;;8.23;5.22;;;;;;;12.72;36.90;101442.06;4911956;29;20043;-92
2023/03/18 08:14:34;;;;;;;16.20;6.40;;;;;;;12.73;37.64;101476.13;4882828;29;20171;-91
2023/03/18 08:17:01;;;;;;;11.23;5.88;;;;;;;12.13;38.98;101459.69;4917507;29;20418;-88
2023/03/18 08:19:27;;;;;;;9.52;5.70;;;;;;;11.99;39.66;101494.25;4912900;29;20050;-90
2023/03/18 08:52:51;;;;;;;12.52;7.25;;;;;;;13.25;38.60;101470.81;5361018;23;20051;-94
2023/03/18 09:02:07;;;;;;;13.60;6.70;;;;;;;12.75;40.08;101493.00;5214020;23;20062;-95
2023/03/18 09:04:35;;;;;;;14.75;7.65;;;;;;;12.24;41.17;101478.34;4941212;29;20088;-93
2023/03/18 09:07:14;;;;;;;14.07;7.72;;;;;;;12.09;41.58;101467.22;4901093;29;20043;-93
2023/03/18 09:10:11;;;;;;;11.02;6.60;;;;;;;12.48;41.14;101495.78;4950633;29;20039;-96
2023/03/18 09:12:55;;;;;;;11.82;6.50;;;;;;;12.06;41.72;101466.66;4955796;28;20020;-96
2023/03/18 09:18:40;;;;;;;10.02;6.53;;;;;;;11.80;42.81;101468.22;5135120;23;20135;-95
2023/03/18 09:21:26;;;;;;;9.25;5.63;;;;;;;11.60;43.52;101464.75;4930317;29;20069;-94
2023/03/18 09:24:05;;;;;;;9.43;5.55;;;;;;;11.31;44.30;101453.25;4919141;29;20048;-94
2023/03/18 09:26:34;;;;;;;14.18;6.82;;;;;;;11.36;44.65;101488.66;4926682;29;20114;-91
2023/03/18 09:29:35;;;;;;;9.52;5.45;;;;;;;10.61;45.83;101453.50;4938410;29;20032;-94
2023/03/18 09:32:05;;;;;;;9.57;5.43;;;;;;;10.47;46.79;101478.97;4946115;29;20446;-92
2023/03/18 09:34:33;;;;;;;11.40;5.78;;;;;;;10.38;46.92;101454.75;4923770;29;20527;-92
2023/03/18 09:37:02;;;;;;;10.25;5.50;;;;;;;10.17;48.15;101477.19;4922613;29;20063;-93
2023/03/18 09:39:44;;;;;;;9.10;5.25;;;;;;;10.27;47.53;101436.88;4890868;29;20140;-91
2023/03/18 09:42:46;;;;;;;8.82;5.30;;;;;;;10.61;47.34;101477.69;4917099;29;20116;-90
2023/03/18 09:49:47;;;;;;;13.98;5.28;;;;;;;10.37;48.08;101490.66;4940567;29;20192;-92
2023/03/18 09:52:26;;;;;;;8.13;5.05;;;;;;;10.03;49.35;101469.50;4866204;29;20041;-90
2023/03/18 10:07:18;;;;;;;8.27;5.30;;;;;;;9.80;51.30;101472.41;4938349;29;20055;-94
2023/03/18 10:10:45;;;;;;;9.70;5.78;;;;;;;9.25;52.46;101448.59;5350845;23;20048;-92
2023/03/18 10:14:20;;;;;;;9.10;4.97;;;;;;;9.25;52.69;101458.47;4905165;29;20052;-93
2023/03/18 10:17:39;;;;;;;10.95;5.53;;;;;;;9.47;52.64;101479.75;4875399;29;20053;-92
2023/03/18 10:20:45;;;;;;;8.32;4.70;;;;;;;9.54;52.28;101465.81;4907655;29;20529;-92
2023/03/18 10:37:02;;;;;;;10.45;5.50;;;;;;;9.43;53.81;101459.53;5257212;23;20123;-91
2023/03/18 10:47:46;;;;;;;7.03;4.20;;;;;;;8.92;54.71;101449.66;5133745;23;20157;-92
2023/03/18 11:47:29;;;;;;;10.40;6.38;;;;;;;8.66;56.62;101392.88;4902882;29;20068;-91
2023/03/18 11:49:58;;;;;;;13.45;6.35;;;;;;;8.78;57.01;101407.06;4859029;29;20048;-93
2023/03/18 11:52:23;;;;;;;10.05;5.68;;;;;;;8.86;57.40;101420.69;4864482;29;20428;-90
2023/03/18 11:55:26;;;;;;;8.60;5.07;;;;;;;8.91;57.65;101425.66;4895877;29;20033;-90
2023/03/18 11:58:30;;;;;;;9.45;5.40;;;;;;;8.78;58.23;101423.16;4893221;29;20191;-90
2023/03/18 12:01:26;;;;;;;9.82;5.50;;;;;;;8.58;58.91;101417.66;4896674;29;20044;-88
2023/03/18 12:04:05;;;;;;;11.65;6.25;;;;;;;8.71;58.78;101405.88;4866136;29;20044;-87
2023/03/18 12:06:42;;;;;;;10.73;5.88;;;;;;;8.72;58.81;101412.97;4895887;29;20093;-90
2023/03/18 12:09:29;;;;;;;10.35;6.03;;;;;;;8.61;59.82;101417.38;4895169;29;20079;-89
2023/03/18 12:12:03;;;;;;;10.38;5.80;;;;;;;8.59;59.43;101392.56;4864209;29;20060;-87
2023/03/18 12:15:00;;;;;;;8.60;5.72;;;;;;;8.46;60.40;101424.06;4877048;29;20421;-89
2023/03/18 12:17:33;;;;;;;9.32;5.68;;;;;;;8.49;60.83;101405.03;4881324;29;20036;-87
2023/03/18 12:20:27;;;;;;;12.10;5.80;;;;;;;8.26;61.54;101409.59;4882328;29;20056;-86
2023/03/18 12:23:03;;;;;;;9.70;5.63;;;;;;;8.31;61.85;101411.88;4877880;29;20407;-88
2023/03/18 12:25:41;;;;;;;10.45;6.55;;;;;;;7.93;62.42;101383.78;4893487;29;20029;-90
2023/03/18 12:28:36;;;;;;;10.65;6.70;;;;;;;7.95;62.52;101365.75;4895379;29;20056;-85
2023/03/18 12:31:14;;;;;;;10.90;6.30;;;;;;;8.39;61.90;101417.47;4862981;29;20040;-86
2023/03/18 12:34:02;;;;;;;11.30;6.70;;;;;;;8.16;63.06;101382.72;4880149;29;20342;-90
2023/03/18 12:36:35;;;;;;;11.23;7.05;;;;;;;8.29;62.40;101384.38;4876232;29;20123;-89
2023/03/18 12:39:07;;;;;;;14.55;7.22;;;;;;;8.21;62.66;101387.69;4878307;29;20083;-89
2023/03/18 12:42:01;;;;;;;13.55;7.20;;;;;;;8.35;61.75;101422.22;4878676;29;20109;-91
2023/03/18 12:44:45;;;;;;;10.27;6.93;;;;;;;8.10;62.38;101418.06;4895512;29;20032;-88
2023/03/18 12:47:24;;;;;;;14.07;7.75;;;;;;;7.90;62.93;101416.16;4897521;29;20060;-88
2023/03/18 12:50:01;;;;;;;11.57;7.65;;;;;;;7.83;63.34;101431.88;4879709;29;20032;-88
2023/03/18 12:52:32;;;;;;;11.65;7.68;;;;;;;7.88;63.32;101442.22;4894419;29;20039;-86
2023/03/18 12:55:17;;;;;;;11.48;7.00;;;;;;;7.88;63.46;101436.84;4854185;29;20498;-86
2023/03/18 12:57:56;;;;;;;13.05;8.43;;;;;;;7.65;64.14;101403.91;4877279;29;20097;-87
2023/03/18 13:00:55;;;;;;;12.15;7.80;;;;;;;7.50;65.31;101422.91;4874712;29;20037;-88
2023/03/18 13:03:31;;;;;;;12.32;7.97;;;;;;;7.28;66.34;101401.50;4851294;29;20052;-87
2023/03/18 13:06:08;;;;;;;12.88;8.18;;;;;;;7.36;66.28;101407.94;4861819;29;20048;-87
2023/03/18 13:09:11;;;;;;;18.00;9.20;;;;;;;7.10;66.77;101401.16;4888748;29;20497;-87
2023/03/18 13:11:51;;;;;;;13.07;8.63;;;;;;;7.21;67.06;101405.63;4879562;29;20066;-87
2023/03/18 13:14:38;;;;;;;12.93;8.48;;;;;;;7.17;67.61;101429.94;4878199;29;20040;-85
2023/03/18 13:17:05;;;;;;;17.42;9.00;;;;;;;6.93;68.07;101403.31;4888271;29;20048;-88
2023/03/18 13:20:08;;;;;;;18.90;10.00;;;;;;;6.70;68.48;101388.19;4893393;29;20047;-90
2023/03/18 13:26:34;;;;;;;16.85;9.60;;;;;;;6.80;70.16;101415.91;4872750;29;20488;-92
2023/03/18 13:36:17;;;;;;;21.27;10.38;;;;;;;6.73;70.30;101414.69;4903854;29;20179;-88
2023/03/18 13:39:21;;;;;;;16.80;10.65;;;;;;;6.63;69.97;101408.34;4899063;29;20021;-88
2023/03/18 13:42:13;;;;;;;18.17;10.82;;;;;;;6.55;70.60;101406.25;4920259;29;20036;-89
2023/03/18 13:44:42;;;;;;;17.88;11.55;;;;;;;6.40;70.63;101370.03;4919720;29;20045;-88
2023/03/18 13:47:14;;;;;;;20.52;12.05;;;;;;;6.33;70.29;101381.16;4912727;29;20048;-92
2023/03/18 13:49:43;;;;;;;19.50;11.55;;;;;;;6.36;71.44;101409.44;4866716;29;20064;-91
2023/03/18 13:52:36;;;;;;;19.85;11.98;;;;;;;6.40;70.98;101408.25;4880985;29;20048;-92
2023/03/18 13:55:15;;;;;;;18.75;11.15;;;;;;;6.45;70.92;101406.09;4895233;29;20470;-90
2023/03/18 13:58:09;;;;;;;21.55;12.27;;;;;;;6.32;70.90;101366.13;4874452;29;20029;-90
2023/03/18 14:00:39;;;;;;;20.80;11.98;;;;;;;6.29;71.07;101385.03;4882072;29;20052;-88
2023/03/18 14:10:19;;;;;;;23.83;13.20;;;;;;;6.15;72.21;101387.03;4826640;29;20046;-91
2023/03/18 14:12:48;;;;;;;20.40;11.73;;;;;;;6.39;71.99;101400.34;4856057;29;20103;-90
2023/03/18 14:15:13;;;;;;;22.75;13.68;;;;;;;6.33;72.04;101385.66;4866629;29;20033;-87
2023/03/18 14:17:58;;;;;;;21.10;13.83;;;;;;;6.23;72.29;101400.69;4898814;29;20071;-87
2023/03/18 14:20:28;;;;;;;21.63;13.47;;;;;;;6.02;72.80;101355.91;4891631;29;20280;-87
2023/03/18 14:22:55;;;;;;;21.35;12.27;;;;;;;6.30;72.68;101384.06;4880109;29;20123;-87
2023/03/18 14:25:33;;;;;;;22.85;12.57;;;;;;;6.11;72.67;101347.22;4862491;29;20052;-88
2023/03/18 14:28:17;;;;;;;26.30;15.02;;;;;;;6.00;73.48;101379.22;4898567;29;20090;-87
2023/03/18 14:31:18;;;;;;;21.52;13.13;;;;;;;6.09;72.85;101378.53;4876117;29;20093;-88
2023/03/18 14:34:08;;;;;;;27.58;13.25;;;;;;;6.02;73.91;101387.13;4880929;29;20112;-87
2023/03/18 14:36:56;;;;;;;20.40;12.18;;;;;;;6.23;73.15;101403.34;4880614;29;20352;-88
2023/03/18 14:39:33;;;;;;;22.77;12.32;;;;;;;6.08;72.92;101379.47;4899365;29;20442;-90
2023/03/18 14:42:05;;;;;;;23.33;12.48;;;;;;;6.00;73.34;101395.22;4885891;29;20044;-91
2023/03/18 14:44:52;;;;;;;22.73;12.77;;;;;;;6.20;73.31;101416.91;4890525;29;20027;-91
2023/03/18 14:47:22;;;;;;;22.80;12.80;;;;;;;6.14;73.24;101420.91;4872152;29;20055;-90
2023/03/18 14:50:14;;;;;;;;;;;;;;;;;;;;;
2023/03/18 14:55:57;;;;;;;29.98;16.60;;;;;;;6.04;74.42;101401.16;4944158;28;20062;-90
2023/03/18 14:58:36;;;;;;;24.25;13.68;;;;;;;5.87;74.96;101389.88;4921562;29;20054;-92
2023/03/18 15:01:09;;;;;;;23.00;13.65;;;;;;;5.69;75.13;101360.09;4949031;29;20104;-91
2023/03/18 15:09:26;;;;;;;25.17;13.70;;;;;;;5.65;75.94;101369.28;5572087;23;20055;-88
2023/03/18 15:11:52;;;;;;;25.65;13.77;;;;;;;5.80;76.24;101398.47;4933131;29;20051;-87
2023/03/18 15:14:33;;;;;;;23.33;13.70;;;;;;;5.75;77.10;101411.28;4919157;29;20066;-86
2023/03/18 15:17:01;;;;;;;28.17;14.50;;;;;;;5.55;77.41;101378.91;4943263;29;20054;-85
2023/03/18 15:19:29;;;;;;;29.40;14.85;;;;;;;5.67;77.25;101394.03;4929905;29;20098;-88
2023/03/18 15:21:57;;;;;;;27.55;14.70;;;;;;;5.59;77.25;101393.72;4925110;29;20039;-89
2023/03/18 15:24:49;;;;;;;26.45;14.32;;;;;;;5.53;77.65;101399.50;4923185;29;20054;-90
2023/03/18 15:27:58;;;;;;;25.42;14.43;;;;;;;5.61;78.26;101415.81;4949000;29;20035;-95
2023/03/18 15:49:11;;;;;;;30.85;15.50;;;;;;;5.48;79.57;101404.31;4925162;29;20207;-93
2023/03/18 15:58:43;;;;;;;30.38;16.05;;;;;;;5.13;81.91;101393.47;4966619;29;20074;-92
2023/03/18 16:05:51;;;;;;;30.77;15.27;;;;;;;5.49;81.83;101457.53;4970361;28;20066;-92
2023/03/18 17:28:59;;;;;;;31.80;16.58;;;;;;;5.94;82.98;101475.72;5081189;23;20039;-92